Time;durP1;ratioP1;P1;durP2;ratioP2;P2;SDS_P1;SDS_P2;PMS_P1;PMS_P2;Temp;Humidity;BMP_temperature;BMP_pressure;BME280_temperature;BME280_humidity;BME280_pressure;Samples;Min_cycle;Max_cycle;Signal;HPM_P1;HPM_P2
2021/04/15 00:01:46;;;;;;;0.30;0.30;;;5.70;90.20;;;;;;4997578;28;20124;-90
2021/04/15 00:04:12;;;;;;;0.20;0.20;;;5.50;90.50;;;;;;5006406;28;20116;-89
2021/04/15 00:06:39;;;;;;;0.35;0.35;;;5.60;90.60;;;;;;4990597;28;20031;-90
2021/04/15 00:09:11;;;;;;;0.10;0.10;;;5.50;90.70;;;;;;4993840;28;20085;-89
2021/04/15 00:11:38;;;;;;;0.20;0.20;;;5.60;90.60;;;;;;5003598;28;20091;-89
2021/04/15 00:14:05;;;;;;;0.10;0.10;;;5.50;91.10;;;;;;4996411;28;20030;-89
2021/04/15 00:16:32;;;;;;;0.60;0.43;;;5.40;97.50;;;;;;5002057;28;20062;-90
2021/04/15 00:18:59;;;;;;;0.10;0.10;;;5.50;91.00;;;;;;5005209;28;20030;-90
2021/04/15 00:21:25;;;;;;;0.10;0.10;;;5.60;91.00;;;;;;5004975;28;20124;-89
2021/04/15 00:23:51;;;;;;;0.20;0.20;;;5.40;91.00;;;;;;4992433;28;20493;-90
2021/04/15 00:26:19;;;;;;;3.85;1.23;;;5.50;90.90;;;;;;4998659;28;20050;-89
2021/04/15 00:28:45;;;;;;;0.30;0.30;;;5.40;91.00;;;;;;4996779;28;20473;-89
2021/04/15 00:31:11;;;;;;;0.95;0.95;;;5.20;91.10;;;;;;4999528;28;20030;-90
2021/04/15 00:33:37;;;;;;;0.10;0.10;;;5.20;91.60;;;;;;5001315;28;20030;-90
2021/04/15 00:36:04;;;;;;;0.20;0.20;;;5.00;91.60;;;;;;5005470;28;20401;-90
2021/04/15 00:38:30;;;;;;;;;;;5.30;91.50;;;;;;5002035;28;20041;-90
2021/04/15 00:40:57;;;;;;;0.20;0.20;;;5.40;91.40;;;;;;4998946;28;20000;-89
2021/04/15 00:43:26;;;;;;;0.30;0.30;;;5.20;91.40;;;;;;5001953;28;20047;-89
2021/04/15 00:45:52;;;;;;;0.57;0.57;;;5.00;91.90;;;;;;4991800;28;20026;-90
2021/04/15 00:48:38;;;;;;;0.10;0.10;;;5.20;92.00;;;;;;4998848;28;20038;-90
2021/04/15 00:51:10;;;;;;;0.10;0.10;;;4.80;92.20;;;;;;4992556;28;20039;-90
2021/04/15 00:53:46;;;;;;;0.50;0.50;;;5.00;91.90;;;;;;5002266;28;20065;-90
2021/04/15 00:56:13;;;;;;;0.10;0.10;;;5.00;92.00;;;;;;5012604;28;20026;-90
2021/04/15 00:58:39;;;;;;;0.30;0.30;;;5.10;92.00;;;;;;4993623;28;20036;-90
2021/04/15 01:01:06;;;;;;;0.43;0.43;;;4.90;92.40;;;;;;5002683;28;20451;-89
2021/04/15 01:03:33;;;;;;;0.60;0.60;;;4.90;92.80;;;;;;5005230;28;20029;-89
2021/04/15 01:05:59;;;;;;;0.20;0.20;;;4.90;92.40;;;;;;4999092;28;20518;-89
2021/04/15 01:08:25;;;;;;;0.20;0.20;;;4.90;92.40;;;;;;5012183;28;20040;-90
2021/04/15 01:11:41;;;;;;;0.20;0.20;;;5.00;92.50;;;;;;4989959;28;20030;-90
2021/04/15 01:14:24;;;;;;;0.13;0.13;;;4.80;92.70;;;;;;5006952;28;20036;-90
2021/04/15 01:17:03;;;;;;;6.53;1.80;;;4.80;92.80;;;;;;5005358;28;20442;-90
2021/04/15 01:20:16;;;;;;;0.10;0.10;;;4.70;93.00;;;;;;5006584;28;20486;-90
2021/04/15 01:23:01;;;;;;;0.40;0.40;;;4.60;93.50;;;;;;4986317;28;20100;-90
2021/04/15 01:25:43;;;;;;;0.10;0.10;;;4.50;93.20;;;;;;4986339;28;20085;-90
2021/04/15 01:28:19;;;;;;;0.30;0.30;;;4.40;93.40;;;;;;4963396;28;20418;-90
2021/04/15 01:30:58;;;;;;;0.20;0.20;;;4.40;93.80;;;;;;4977043;28;20037;-91
2021/04/15 01:33:38;;;;;;;0.40;0.40;;;4.40;93.60;;;;;;4967413;28;20089;-90
2021/04/15 01:36:12;;;;;;;0.30;0.30;;;4.50;93.70;;;;;;4968296;28;20027;-90
2021/04/15 01:38:43;;;;;;;0.28;0.28;;;4.50;93.70;;;;;;4959398;28;20507;-90
2021/04/15 01:41:55;;;;;;;0.30;0.30;;;4.50;94.00;;;;;;4963532;28;20612;-89
2021/04/15 01:44:32;;;;;;;0.13;0.13;;;4.40;94.00;;;;;;4971617;28;20129;-90
2021/04/15 01:47:03;;;;;;;0.25;0.25;;;4.30;94.00;;;;;;4977518;28;20148;-89
2021/04/15 01:49:33;;;;;;;0.82;0.82;;;4.30;94.20;;;;;;4958765;28;20035;-89
2021/04/15 01:52:00;;;;;;;0.17;0.17;;;4.20;94.50;;;;;;4967430;28;20046;-90
2021/04/15 01:54:30;;;;;;;0.55;0.55;;;4.10;94.30;;;;;;5006472;28;20073;-89
2021/04/15 01:57:03;;;;;;;0.15;0.15;;;4.20;94.40;;;;;;5022148;28;20091;-89
2021/04/15 01:59:45;;;;;;;0.20;0.20;;;4.10;94.70;;;;;;4997015;28;20022;-89
2021/04/15 02:02:24;;;;;;;0.45;0.45;;;4.20;94.60;;;;;;4998773;28;20046;-89
2021/04/15 02:05:17;;;;;;;0.90;0.82;;;4.00;94.90;;;;;;4991968;28;20030;-88
2021/04/15 02:07:57;;;;;;;2.50;2.30;;;4.00;94.80;;;;;;5018853;28;20815;-89
2021/04/15 02:10:25;;;;;;;0.20;0.20;;;3.90;99.90;;;;;;5012161;28;20039;-89
2021/04/15 02:12:53;;;;;;;0.10;0.10;;;3.90;95.30;;;;;;4998764;28;20058;-89
2021/04/15 02:15:29;;;;;;;0.10;0.10;;;4.00;99.90;;;;;;5006736;28;20048;-88
2021/04/15 02:18:06;;;;;;;0.38;0.38;;;3.80;95.40;;;;;;4999129;28;20062;-88
2021/04/15 02:20:32;;;;;;;2.35;0.57;;;3.60;95.70;;;;;;4998406;28;20512;-88
2021/04/15 02:23:17;;;;;;;0.20;0.20;;;3.60;96.10;;;;;;5015485;28;20030;-89
2021/04/15 02:25:48;;;;;;;0.10;0.10;;;3.40;96.20;;;;;;5003493;28;20149;-90
2021/04/15 02:28:28;;;;;;;0.40;0.40;;;3.60;96.30;;;;;;4998339;28;20042;-86
2021/04/15 02:31:21;;;;;;;0.77;0.77;;;3.50;96.20;;;;;;5007564;28;20029;-86
2021/04/15 02:33:56;;;;;;;0.10;0.10;;;3.40;96.60;;;;;;5003035;28;20040;-88
2021/04/15 02:36:26;;;;;;;0.10;0.10;;;3.20;96.80;;;;;;4996572;28;20030;-89
2021/04/15 02:38:58;;;;;;;0.22;0.22;;;3.50;96.90;;;;;;5003703;28;20446;-88
2021/04/15 02:41:28;;;;;;;0.30;0.30;;;3.40;96.80;;;;;;4994591;28;20018;-87
2021/04/15 02:44:04;;;;;;;0.10;0.10;;;3.30;96.90;;;;;;5000553;28;20080;-87
2021/04/15 02:46:58;;;;;;;0.57;0.57;;;3.40;96.90;;;;;;5021493;28;20699;-88
2021/04/15 02:49:30;;;;;;;0.32;0.32;;;3.40;96.80;;;;;;4984699;28;20503;-88
2021/04/15 02:52:12;;;;;;;0.10;0.10;;;3.30;97.00;;;;;;4992974;28;20041;-89
2021/04/15 02:54:42;;;;;;;0.32;0.32;;;3.20;97.10;;;;;;5000706;28;20405;-89
2021/04/15 02:57:23;;;;;;;0.20;0.20;;;3.30;97.00;;;;;;4999713;28;20030;-87
2021/04/15 02:59:55;;;;;;;0.10;0.10;;;3.40;97.10;;;;;;5002449;28;20105;-89
2021/04/15 03:02:31;;;;;;;0.40;0.40;;;3.00;97.30;;;;;;5011665;28;20026;-89
2021/04/15 03:05:19;;;;;;;0.10;0.10;;;2.90;97.90;;;;;;5002854;28;20569;-89
2021/04/15 03:07:45;;;;;;;0.20;0.20;;;3.30;97.50;;;;;;5007719;28;20034;-88
2021/04/15 03:10:14;;;;;;;0.10;0.10;;;3.10;97.50;;;;;;4991954;28;20062;-88
2021/04/15 03:12:43;;;;;;;0.40;0.40;;;3.10;99.90;;;;;;4990387;28;20332;-88
2021/04/15 03:15:19;;;;;;;0.10;0.10;;;3.30;97.40;;;;;;5001487;28;20025;-88
2021/04/15 03:17:52;;;;;;;0.20;0.20;;;3.30;97.10;;;;;;5001477;28;20058;-89
2021/04/15 03:20:35;;;;;;;0.10;0.10;;;3.20;97.80;;;;;;4992219;28;20027;-89
2021/04/15 03:23:33;;;;;;;0.10;0.10;;;3.10;97.50;;;;;;5009249;28;20042;-88
2021/04/15 03:26:23;;;;;;;1.08;0.57;;;2.90;98.10;;;;;;5003132;28;20019;-89
2021/04/15 03:29:17;;;;;;;0.30;0.30;;;3.20;97.60;;;;;;4953709;28;20035;-88
2021/04/15 03:31:50;;;;;;;0.20;0.20;;;3.10;97.80;;;;;;4953708;28;20039;-88
2021/04/15 03:34:44;;;;;;;0.35;0.35;;;3.20;97.90;;;;;;4967118;28;20158;-87
2021/04/15 03:37:17;;;;;;;0.10;0.10;;;3.00;98.30;;;;;;4962263;28;20034;-88
2021/04/15 03:39:45;;;;;;;0.10;0.10;;;3.30;97.80;;;;;;4947092;28;20062;-87
2021/04/15 03:42:27;;;;;;;0.80;0.80;;;3.10;98.10;;;;;;4968430;28;20022;-88
2021/04/15 03:45:00;;;;;;;3.03;0.73;;;3.30;97.70;;;;;;4951201;28;20093;-89
2021/04/15 03:47:31;;;;;;;0.20;0.20;;;3.20;97.80;;;;;;4967586;28;20254;-89
2021/04/15 03:50:08;;;;;;;0.95;0.80;;;2.90;98.40;;;;;;4963805;28;20030;-88
2021/04/15 03:53:06;;;;;;;0.17;0.17;;;2.90;98.60;;;;;;4962021;28;20089;-88
2021/04/15 03:55:35;;;;;;;0.10;0.10;;;2.80;98.70;;;;;;4963708;28;20047;-89
2021/04/15 03:58:08;;;;;;;0.25;0.25;;;3.00;98.10;;;;;;4966694;28;20026;-88
2021/04/15 04:00:43;;;;;;;0.30;0.30;;;3.20;98.50;;;;;;4967487;28;20038;-89
2021/04/15 04:03:13;;;;;;;0.17;0.17;;;3.20;98.30;;;;;;4955457;28;20023;-89
2021/04/15 04:05:50;;;;;;;0.88;0.65;;;3.10;98.50;;;;;;4974899;28;20038;-89
2021/04/15 04:08:28;;;;;;;0.22;0.22;;;2.90;98.60;;;;;;4997772;28;20158;-88
2021/04/15 04:10:55;;;;;;;0.20;0.20;;;2.90;99.00;;;;;;5021775;28;20034;-88
2021/04/15 04:13:27;;;;;;;0.20;0.20;;;2.70;99.50;;;;;;4995994;28;20030;-89
2021/04/15 04:16:02;;;;;;;0.65;0.65;;;2.70;99.40;;;;;;4994647;28;20049;-89
2021/04/15 04:18:34;;;;;;;0.20;0.20;;;2.80;99.50;;;;;;4997010;28;20030;-88
2021/04/15 04:21:36;;;;;;;0.20;0.20;;;2.80;99.00;;;;;;4969136;28;1183396;-88
2021/04/15 04:24:30;;;;;;;0.20;0.20;;;2.60;99.30;;;;;;5015223;28;20026;-89
2021/04/15 04:27:06;;;;;;;0.20;0.20;;;2.70;99.30;;;;;;4991773;28;20651;-89
2021/04/15 04:29:41;;;;;;;0.45;0.45;;;2.80;99.40;;;;;;4993028;28;20783;-89
2021/04/15 04:32:11;;;;;;;0.10;0.10;;;2.80;99.40;;;;;;5013771;28;20069;-89
2021/04/15 04:34:38;;;;;;;1.10;0.85;;;2.50;99.90;;;;;;4990479;28;20383;-89
2021/04/15 04:37:08;;;;;;;0.25;0.25;;;2.60;99.70;;;;;;4998108;28;20037;-87
2021/04/15 04:39:34;;;;;;;0.20;0.20;;;2.20;99.90;;;;;;4997138;28;20033;-90
2021/04/15 04:42:25;;;;;;;0.38;0.38;;;2.30;99.90;;;;;;5001783;28;20034;-88
2021/04/15 04:44:52;;;;;;;0.73;0.73;;;2.30;99.90;;;;;;5005650;28;20026;-89
2021/04/15 04:47:32;;;;;;;0.20;0.20;;;2.40;99.90;;;;;;5000447;28;20704;-88
2021/04/15 04:50:22;;;;;;;0.63;0.50;;;2.50;99.90;;;;;;5000707;28;20068;-88
2021/04/15 04:52:48;;;;;;;0.10;0.10;;;2.60;99.90;;;;;;5003771;28;20040;-90
2021/04/15 04:56:04;;;;;;;0.47;0.47;;;2.70;99.90;;;;;;4996221;28;20066;-89
2021/04/15 04:58:30;;;;;;;0.10;0.10;;;2.50;99.90;;;;;;4990183;28;20072;-89
2021/04/15 05:00:57;;;;;;;0.30;0.30;;;2.40;99.90;;;;;;5004025;28;20030;-89
2021/04/15 05:03:26;;;;;;;0.45;0.45;;;2.70;99.90;;;;;;4998288;28;20411;-89
2021/04/15 05:06:21;;;;;;;0.43;0.35;;;2.40;99.90;;;;;;5012592;28;20030;-88
2021/04/15 05:08:49;;;;;;;0.35;0.35;;;2.50;99.90;;;;;;4997675;28;20545;-90
2021/04/15 05:11:16;;;;;;;0.10;0.10;;;2.50;99.90;;;;;;5008558;28;20089;-89
2021/04/15 05:13:42;;;;;;;0.32;0.32;;;2.60;99.90;;;;;;4992712;28;20047;-88
2021/04/15 05:16:08;;;;;;;0.47;0.47;;;2.60;99.90;;;;;;5001516;28;20113;-89
2021/04/15 05:18:35;;;;;;;0.30;0.30;;;2.70;99.90;;;;;;5001411;28;20237;-89
2021/04/15 05:21:13;;;;;;;;;;;2.60;99.90;;;;;;4998534;28;20047;-90
2021/04/15 05:23:57;;;;;;;0.10;0.10;;;2.80;99.90;;;;;;5014117;28;20012;-88
2021/04/15 05:26:26;;;;;;;0.10;0.10;;;2.90;99.90;;;;;;5018209;28;20034;-88
2021/04/15 05:28:57;;;;;;;0.30;0.30;;;3.20;99.90;;;;;;5005170;28;20026;-89
2021/04/15 05:31:27;;;;;;;0.10;0.10;;;3.40;99.90;;;;;;5003931;28;20042;-88
2021/04/15 05:33:53;;;;;;;0.20;0.20;;;3.90;99.90;;;;;;5009744;28;20105;-89
2021/04/15 05:36:46;;;;;;;0.30;0.30;;;4.40;99.90;;;;;;5001732;28;20034;-89
2021/04/15 05:39:17;;;;;;;0.10;0.10;;;4.70;99.90;;;;;;5000552;28;20030;-89
2021/04/15 05:41:58;;;;;;;0.90;0.90;;;5.00;99.40;;;;;;5000339;28;20034;-89
2021/04/15 05:44:31;;;;;;;0.60;0.60;;;5.10;98.80;;;;;;5001803;28;20029;-88
2021/04/15 05:46:57;;;;;;;0.20;0.20;;;5.30;98.80;;;;;;5001969;28;20524;-89
2021/04/15 05:49:43;;;;;;;0.10;0.10;;;5.70;98.40;;;;;;4992091;28;20177;-89
2021/04/15 05:52:40;;;;;;;0.25;0.25;;;5.80;98.70;;;;;;5001132;28;20504;-89
2021/04/15 05:55:14;;;;;;;0.20;0.20;;;5.90;98.30;;;;;;5000846;28;20973;-87
2021/04/15 05:57:44;;;;;;;0.10;0.10;;;6.00;99.10;;;;;;5003658;28;20033;-87
2021/04/15 06:00:24;;;;;;;0.30;0.30;;;6.20;97.60;;;;;;5012295;28;20028;-86
2021/04/15 06:03:29;;;;;;;0.30;0.30;;;6.40;99.50;;;;;;4992683;28;20026;-86
2021/04/15 06:06:06;;;;;;;0.28;0.28;;;6.40;97.60;;;;;;4973305;28;20214;-87
2021/04/15 06:08:37;;;;;;;0.00;0.00;;;6.80;96.90;;;;;;4984687;28;20100;-88
2021/04/15 06:11:25;;;;;;;0.25;0.25;;;7.00;96.80;;;;;;4988480;28;20077;-88
2021/04/15 06:14:04;;;;;;;0.10;0.10;;;7.10;97.40;;;;;;4964356;28;20030;-88
2021/04/15 06:16:35;;;;;;;0.57;0.57;;;6.80;96.50;;;;;;4977067;28;20046;-88
2021/04/15 06:19:03;;;;;;;0.10;0.10;;;7.40;96.80;;;;;;4979046;28;20624;-88
2021/04/15 06:21:36;;;;;;;0.30;0.30;;;7.50;96.50;;;;;;4977837;28;20105;-87
2021/04/15 06:24:10;;;;;;;0.08;0.08;;;7.30;96.50;;;;;;4979290;28;20086;-87
2021/04/15 06:26:43;;;;;;;6.50;1.45;;;7.70;95.90;;;;;;4984706;28;20494;-87
2021/04/15 06:29:22;;;;;;;0.00;0.00;;;7.80;96.40;;;;;;4967091;28;20414;-87
2021/04/15 06:31:52;;;;;;;0.20;0.20;;;8.30;94.60;;;;;;4981280;28;20035;-87
2021/04/15 06:34:18;;;;;;;0.30;0.30;;;8.70;94.30;;;;;;4971185;28;20085;-87
2021/04/15 06:36:46;;;;;;;0.05;0.05;;;9.00;93.60;;;;;;4974734;28;20039;-87
2021/04/15 06:39:27;;;;;;;1.25;0.95;;;8.70;93.80;;;;;;4984124;28;20088;-88
2021/04/15 06:42:30;;;;;;;0.10;0.10;;;9.00;93.80;;;;;;4979429;28;20029;-88
2021/04/15 06:45:26;;;;;;;0.13;0.13;;;9.20;93.30;;;;;;4999416;28;20034;-88
2021/04/15 06:48:18;;;;;;;0.22;0.22;;;9.40;93.80;;;;;;5013780;28;20026;-87
2021/04/15 06:50:58;;;;;;;0.10;0.10;;;9.50;92.80;;;;;;5002859;28;20038;-87
2021/04/15 06:53:45;;;;;;;0.20;0.20;;;9.20;93.40;;;;;;5001442;28;20159;-87
2021/04/15 06:56:43;;;;;;;0.65;0.60;;;10.40;92.40;;;;;;5011007;28;20164;-87
2021/04/15 06:59:39;;;;;;;0.10;0.10;;;10.00;91.70;;;;;;5011056;28;20030;-87
2021/04/15 07:02:41;;;;;;;0.50;0.50;;;9.80;90.80;;;;;;5003977;28;20026;-87
2021/04/15 07:05:34;;;;;;;0.65;0.50;;;10.60;91.80;;;;;;5018850;28;20030;-87
2021/04/15 07:08:54;;;;;;;0.00;0.00;;;10.70;92.20;;;;;;4994244;28;20634;-87
2021/04/15 07:11:42;;;;;;;0.22;0.22;;;10.40;92.30;;;;;;4983242;28;20105;-88
2021/04/15 07:14:28;;;;;;;0.13;0.13;;;10.00;92.80;;;;;;4985561;28;20022;-87
2021/04/15 07:17:15;;;;;;;0.50;0.50;;;10.60;92.00;;;;;;4965492;28;20522;-88
2021/04/15 07:20:13;;;;;;;1.02;0.65;;;11.10;91.00;;;;;;4985170;28;20029;-86
2021/04/15 07:23:01;;;;;;;1.30;0.63;;;10.60;91.40;;;;;;4981526;28;20210;-87
2021/04/15 07:25:57;;;;;;;0.30;0.30;;;10.60;91.30;;;;;;4978764;28;20023;-88
2021/04/15 07:28:41;;;;;;;0.22;0.22;;;11.40;90.70;;;;;;4954800;28;20062;-88
2021/04/15 07:31:27;;;;;;;0.10;0.10;;;11.50;90.00;;;;;;4982071;28;20022;-89
2021/04/15 07:34:25;;;;;;;0.47;0.47;;;11.80;89.30;;;;;;4902678;29;20051;-86
2021/04/15 07:37:28;;;;;;;0.20;0.20;;;11.70;89.70;;;;;;4898388;29;20037;-87
2021/04/15 07:40:14;;;;;;;1.00;0.68;;;12.40;88.80;;;;;;4903065;29;20508;-87
2021/04/15 07:42:55;;;;;;;0.22;0.22;;;13.50;82.30;;;;;;4906502;29;20461;-89
2021/04/15 07:45:39;;;;;;;0.38;0.38;;;13.00;81.80;;;;;;4908715;29;20065;-92
2021/04/15 07:48:33;;;;;;;0.40;0.40;;;13.10;85.70;;;;;;4910485;29;20043;-90
2021/04/15 07:51:32;;;;;;;1.00;0.77;;;13.90;82.40;;;;;;4939570;29;20040;-88
2021/04/15 07:54:12;;;;;;;0.10;0.10;;;13.50;81.80;;;;;;4936375;29;20042;-89
2021/04/15 07:56:53;;;;;;;0.30;0.30;;;13.90;82.40;;;;;;4942264;29;20549;-89
2021/04/15 07:59:50;;;;;;;1.20;0.60;;;14.60;78.50;;;;;;4939178;29;20070;-90
2021/04/15 08:02:51;;;;;;;0.10;0.10;;;15.10;77.20;;;;;;4947797;29;20101;-91
2021/04/15 08:06:02;;;;;;;0.10;0.10;;;13.70;82.30;;;;;;4891897;29;20039;-90
2021/04/15 08:08:43;;;;;;;0.73;0.60;;;15.20;75.80;;;;;;4888496;29;20037;-87
2021/04/15 08:11:36;;;;;;;0.00;0.00;;;15.20;78.00;;;;;;4887489;29;20508;-88
2021/04/15 08:14:10;;;;;;;0.10;0.10;;;14.50;75.80;;;;;;4916769;29;20075;-88
2021/04/15 08:17:08;;;;;;;0.30;0.30;;;14.90;78.40;;;;;;4923714;29;20090;-86
2021/04/15 08:20:19;;;;;;;0.40;0.40;;;15.80;75.70;;;;;;4922829;29;20032;-86
2021/04/15 08:23:07;;;;;;;0.10;0.10;;;15.40;73.90;;;;;;4913745;29;20087;-87
2021/04/15 08:25:41;;;;;;;0.10;0.10;;;16.70;71.00;;;;;;4921518;29;20052;-86
2021/04/15 08:28:19;;;;;;;0.10;0.10;;;16.30;73.30;;;;;;4915002;29;20043;-86
2021/04/15 08:31:01;;;;;;;0.10;0.10;;;16.90;69.30;;;;;;4898766;29;20028;-87
2021/04/15 08:33:56;;;;;;;1.45;0.75;;;17.20;67.80;;;;;;4920684;29;20040;-86
2021/04/15 08:36:47;;;;;;;0.10;0.10;;;16.20;73.40;;;;;;4904546;29;20456;-87
2021/04/15 08:39:33;;;;;;;0.82;0.80;;;15.30;75.20;;;;;;4923808;29;20178;-87
2021/04/15 08:42:21;;;;;;;0.10;0.10;;;16.30;72.60;;;;;;4946579;28;20119;-88
2021/04/15 08:45:06;;;;;;;0.10;0.10;;;16.60;70.40;;;;;;4998775;28;20494;-87
2021/04/15 08:47:52;;;;;;;0.10;0.10;;;15.70;72.80;;;;;;4999918;28;20145;-88
2021/04/15 08:50:33;;;;;;;0.30;0.30;;;15.60;73.10;;;;;;5018373;28;20319;-87
2021/04/15 08:53:37;;;;;;;1.13;0.85;;;15.70;71.90;;;;;;4999110;28;20037;-88
2021/04/15 08:56:30;;;;;;;0.10;0.10;;;15.50;72.30;;;;;;4999819;28;20034;-88
2021/04/15 08:59:06;;;;;;;0.20;0.20;;;17.40;67.90;;;;;;5015728;28;20437;-88
2021/04/15 09:01:32;;;;;;;0.45;0.45;;;16.40;70.10;;;;;;5011198;28;20022;-89
2021/04/15 09:04:27;;;;;;;0.30;0.30;;;16.90;68.10;;;;;;5018644;28;20513;-87
2021/04/15 09:06:56;;;;;;;0.10;0.10;;;17.00;63.80;;;;;;5000612;28;20034;-87
2021/04/15 09:09:35;;;;;;;0.20;0.20;;;17.10;65.20;;;;;;5002094;28;20034;-86
2021/04/15 09:12:14;;;;;;;0.22;0.22;;;18.70;61.50;;;;;;5002329;28;20025;-88
2021/04/15 09:15:16;;;;;;;0.40;0.40;;;20.80;56.10;;;;;;5003972;28;20037;-86
2021/04/15 09:18:14;;;;;;;0.40;0.40;;;18.70;60.60;;;;;;5002765;28;20041;-87
2021/04/15 09:21:15;;;;;;;0.10;0.10;;;18.50;60.30;;;;;;5002492;28;20501;-86
2021/04/15 09:24:08;;;;;;;0.43;0.43;;;19.10;59.90;;;;;;5003588;28;20022;-87
2021/04/15 09:26:55;;;;;;;0.20;0.20;;;18.70;56.10;;;;;;4991257;28;20049;-87
2021/04/15 09:29:36;;;;;;;0.28;0.28;;;19.20;59.70;;;;;;4995134;28;20077;-88
2021/04/15 09:32:12;;;;;;;0.35;0.35;;;20.10;56.30;;;;;;5014813;28;20030;-88
2021/04/15 09:35:06;;;;;;;0.17;0.17;;;22.10;47.70;;;;;;5001083;28;20019;-87
2021/04/15 09:37:47;;;;;;;0.10;0.10;;;21.00;53.30;;;;;;5000191;28;20035;-85
2021/04/15 09:40:36;;;;;;;0.10;0.10;;;18.60;58.20;;;;;;4994311;28;20068;-86
2021/04/15 09:43:16;;;;;;;0.10;0.10;;;18.60;57.80;;;;;;4997294;28;20096;-84
2021/04/15 09:46:14;;;;;;;0.17;0.17;;;20.30;51.70;;;;;;5002973;28;20029;-85
2021/04/15 09:49:00;;;;;;;0.10;0.10;;;18.90;47.80;;;;;;4995439;28;20042;-88
2021/04/15 09:52:10;;;;;;;0.20;0.20;;;19.20;53.60;;;;;;5001831;28;20045;-87
2021/04/15 09:55:15;;;;;;;0.10;0.10;;;20.00;67.90;;;;;;4998005;28;20841;-87
2021/04/15 09:58:09;;;;;;;1.90;0.43;;;20.70;51.20;;;;;;4995317;28;20776;-85
2021/04/15 10:00:43;;;;;;;0.20;0.20;;;21.80;47.50;;;;;;5000840;28;20416;-84
2021/04/15 10:03:26;;;;;;;0.20;0.20;;;23.20;43.30;;;;;;4997436;28;20042;-84
2021/04/15 10:06:18;;;;;;;0.10;0.10;;;21.90;45.20;;;;;;5017629;28;20110;-84
2021/04/15 10:08:57;;;;;;;0.20;0.20;;;19.90;53.20;;;;;;5001554;28;20839;-85
2021/04/15 10:11:41;;;;;;;0.10;0.10;;;21.90;45.60;;;;;;5004283;28;20029;-84
2021/04/15 10:14:15;;;;;;;0.10;0.10;;;23.50;44.60;;;;;;5004842;28;20041;-84
2021/04/15 10:16:45;;;;;;;0.20;0.20;;;23.10;40.00;;;;;;5003147;28;20517;-86
2021/04/15 10:19:32;;;;;;;0.15;0.15;;;22.90;41.60;;;;;;5003773;28;20033;-84
2021/04/15 10:22:32;;;;;;;0.15;0.15;;;20.20;49.90;;;;;;5001894;28;20787;-84
2021/04/15 10:25:11;;;;;;;0.10;0.10;;;20.10;48.80;;;;;;5021751;28;20113;-83
2021/04/15 10:28:10;;;;;;;0.00;0.00;;;21.00;49.60;;;;;;4996487;28;20088;-83
2021/04/15 10:30:41;;;;;;;0.10;0.10;;;22.20;42.60;;;;;;4995748;28;20538;-84
2021/04/15 10:33:32;;;;;;;0.10;0.10;;;23.10;40.30;;;;;;5004078;28;20405;-83
2021/04/15 10:36:35;;;;;;;0.20;0.20;;;24.70;37.30;;;;;;5002484;28;20026;-84
2021/04/15 10:39:36;;;;;;;0.57;0.30;;;22.50;43.90;;;;;;5017603;28;20092;-83
2021/04/15 10:42:24;;;;;;;0.30;0.30;;;22.20;43.80;;;;;;4996543;28;20054;-83
2021/04/15 10:45:17;;;;;;;0.10;0.10;;;22.70;40.70;;;;;;4998838;28;20133;-83
2021/04/15 10:47:55;;;;;;;0.15;0.15;;;20.40;46.40;;;;;;5000220;28;20030;-88
2021/04/15 10:50:54;;;;;;;0.10;0.10;;;21.00;43.70;;;;;;5003861;28;20030;-86
2021/04/15 10:53:29;;;;;;;0.25;0.25;;;18.80;50.90;;;;;;5007955;28;20031;-85
2021/04/15 10:56:08;;;;;;;0.20;0.20;;;19.20;51.00;;;;;;4994930;28;20030;-85
2021/04/15 10:58:47;;;;;;;0.52;0.52;;;17.70;48.50;;;;;;5021442;28;20052;-85
2021/04/15 11:01:29;;;;;;;0.10;0.10;;;18.90;48.50;;;;;;5000900;28;20033;-88
2021/04/15 11:04:00;;;;;;;0.15;0.15;;;18.20;51.10;;;;;;5001004;28;20018;-86
2021/04/15 11:06:47;;;;;;;0.10;0.10;;;18.60;50.30;;;;;;4997249;28;20456;-84
2021/04/15 11:09:30;;;;;;;0.10;0.10;;;18.20;48.60;;;;;;4998205;28;20036;-84
2021/04/15 11:12:29;;;;;;;0.10;0.10;;;21.50;42.40;;;;;;5015942;28;20033;-87
2021/04/15 11:15:00;;;;;;;0.10;0.10;;;23.90;36.30;;;;;;5004819;28;20053;-84
2021/04/15 11:17:30;;;;;;;0.68;0.38;;;20.70;45.20;;;;;;5001347;28;20045;-85
2021/04/15 11:20:35;;;;;;;0.30;0.30;;;19.60;48.10;;;;;;4995803;28;20108;-83
2021/04/15 11:23:13;;;;;;;0.13;0.13;;;19.50;51.10;;;;;;4995487;28;20081;-84
2021/04/15 11:25:48;;;;;;;0.10;0.10;;;22.20;43.40;;;;;;5012494;28;20050;-88
2021/04/15 11:28:23;;;;;;;1.60;1.05;;;21.70;55.10;;;;;;5007117;28;20033;-88
2021/04/15 11:31:10;;;;;;;0.10;0.10;;;19.70;62.60;;;;;;5000736;28;20388;-87
2021/04/15 11:33:52;;;;;;;0.35;0.30;;;20.90;46.60;;;;;;4999869;28;20030;-89
2021/04/15 11:36:37;;;;;;;0.25;0.25;;;15.30;53.40;;;;;;5006336;28;20438;-89
2021/04/15 11:39:21;;;;;;;0.17;0.17;;;13.80;56.90;;;;;;5014232;28;20087;-90
2021/04/15 11:41:47;;;;;;;0.38;0.20;;;13.60;57.10;;;;;;5000191;28;20025;-89
2021/04/15 11:44:31;;;;;;;0.10;0.10;;;13.40;58.10;;;;;;4999573;28;20022;-90
2021/04/15 11:47:03;;;;;;;0.20;0.20;;;13.10;58.40;;;;;;5000670;28;20029;-90
2021/04/15 11:49:32;;;;;;;0.30;0.30;;;12.80;58.70;;;;;;5000774;28;20128;-89
2021/04/15 11:52:24;;;;;;;0.00;0.00;;;13.40;58.10;;;;;;5004900;28;20160;-89
2021/04/15 11:54:53;;;;;;;0.32;0.32;;;13.20;59.00;;;;;;5004245;28;20818;-89
2021/04/15 11:57:33;;;;;;;0.15;0.15;;;12.80;58.40;;;;;;5000426;28;20058;-89
2021/04/15 12:00:00;;;;;;;0.10;0.10;;;12.80;59.20;;;;;;5002738;28;20029;-89
2021/04/15 12:02:35;;;;;;;0.10;0.10;;;12.80;59.60;;;;;;5013034;28;20030;-89
2021/04/15 12:05:30;;;;;;;0.10;0.10;;;12.80;61.00;;;;;;5003301;28;20056;-90
2021/04/15 12:08:17;;;;;;;0.10;0.10;;;13.20;58.90;;;;;;5000886;28;20033;-90
2021/04/15 12:11:02;;;;;;;0.00;0.00;;;13.20;59.00;;;;;;5000958;28;20481;-89
2021/04/15 12:13:37;;;;;;;0.00;0.00;;;13.00;59.40;;;;;;5002481;28;20033;-88
2021/04/15 12:16:14;;;;;;;0.00;0.00;;;13.30;57.70;;;;;;4997157;28;20042;-84
2021/04/15 12:18:58;;;;;;;0.00;0.00;;;13.00;59.20;;;;;;5001306;28;20944;-85
2021/04/15 12:21:31;;;;;;;0.10;0.10;;;13.00;59.80;;;;;;4999668;28;20141;-82
2021/04/15 12:24:05;;;;;;;0.05;0.05;;;12.50;60.00;;;;;;5000335;28;20380;-83
2021/04/15 12:26:45;;;;;;;0.10;0.10;;;13.00;59.30;;;;;;5001072;28;20049;-83
2021/04/15 12:29:31;;;;;;;1.30;0.75;;;12.60;59.60;;;;;;5001940;28;20058;-84
2021/04/15 12:32:02;;;;;;;0.08;0.08;;;12.90;59.60;;;;;;5002276;28;20028;-83
2021/04/15 12:34:51;;;;;;;0.10;0.10;;;13.10;58.50;;;;;;5000764;28;20045;-87
2021/04/15 12:37:38;;;;;;;0.45;0.45;;;12.90;59.50;;;;;;4999764;28;20505;-86
2021/04/15 12:40:07;;;;;;;0.10;0.10;;;12.80;59.60;;;;;;4998761;28;20109;-86
2021/04/15 12:42:41;;;;;;;0.20;0.20;;;13.40;57.30;;;;;;5004865;28;20520;-86
2021/04/15 12:45:19;;;;;;;0.22;0.22;;;12.90;58.80;;;;;;5000927;28;20029;-86
2021/04/15 12:47:47;;;;;;;0.20;0.20;;;12.70;58.90;;;;;;4998807;28;20029;-87
2021/04/15 12:50:13;;;;;;;0.10;0.10;;;12.80;58.60;;;;;;5001091;28;20125;-87
2021/04/15 12:52:40;;;;;;;0.08;0.08;;;12.60;59.60;;;;;;5003682;28;20524;-87
2021/04/15 12:55:09;;;;;;;;;;;12.60;59.00;;;;;;5001099;28;20030;-83
2021/04/15 12:57:35;;;;;;;0.20;0.20;;;13.00;58.80;;;;;;4997237;28;19956;-83
2021/04/15 13:00:22;;;;;;;0.10;0.10;;;12.60;59.00;;;;;;4997970;28;20040;-81
2021/04/15 13:02:48;;;;;;;0.15;0.15;;;13.00;57.80;;;;;;5001933;28;20780;-82
2021/04/15 13:05:46;;;;;;;0.30;0.30;;;12.80;58.50;;;;;;4997253;28;20513;-82
2021/04/15 13:08:37;;;;;;;0.00;0.00;;;13.00;58.90;;;;;;5000033;28;20784;-81
2021/04/15 13:11:21;;;;;;;0.15;0.15;;;12.50;58.50;;;;;;4991670;28;20034;-82
2021/04/15 13:13:56;;;;;;;1.15;0.85;;;12.70;58.90;;;;;;4999605;28;20096;-85
2021/04/15 13:16:34;;;;;;;0.00;0.00;;;12.40;59.30;;;;;;5016683;28;20030;-84
2021/04/15 13:19:01;;;;;;;0.10;0.10;;;12.50;59.00;;;;;;5004160;28;20038;-89
2021/04/15 13:21:34;;;;;;;0.10;0.10;;;13.00;58.60;;;;;;4999573;28;20042;-88
2021/04/15 13:24:21;;;;;;;0.30;0.30;;;12.90;58.60;;;;;;5000052;28;20180;-87
2021/04/15 13:26:48;;;;;;;2.22;1.55;;;12.70;58.30;;;;;;5001975;28;20029;-88
2021/04/15 13:29:18;;;;;;;0.30;0.30;;;12.90;58.30;;;;;;4996926;28;20402;-88
2021/04/15 13:31:55;;;;;;;0.10;0.10;;;12.70;58.50;;;;;;5004309;28;20517;-87
2021/04/15 13:34:26;;;;;;;0.00;0.00;;;12.70;58.70;;;;;;4998331;28;20113;-87
2021/04/15 13:37:12;;;;;;;0.10;0.10;;;12.60;58.50;;;;;;5001361;28;20088;-88
2021/04/15 13:39:41;;;;;;;1.35;1.02;;;13.00;58.30;;;;;;5001512;28;20048;-88
2021/04/15 13:42:32;;;;;;;0.10;0.10;;;12.90;57.90;;;;;;5003305;28;20022;-87
2021/04/15 13:45:10;;;;;;;0.10;0.10;;;12.50;59.70;;;;;;5007376;28;20034;-86
2021/04/15 13:47:46;;;;;;;0.10;0.10;;;12.60;59.80;;;;;;5019143;28;20018;-87
2021/04/15 13:50:15;;;;;;;0.00;0.00;;;12.90;58.30;;;;;;5003347;28;20038;-87
2021/04/15 13:52:42;;;;;;;0.20;0.20;;;12.80;59.20;;;;;;4998287;28;20092;-87
2021/04/15 13:55:45;;;;;;;2.42;0.75;;;12.80;58.60;;;;;;5000418;28;20030;-85
2021/04/15 13:58:11;;;;;;;0.00;0.00;;;12.80;59.00;;;;;;5004402;28;20029;-87
2021/04/15 14:00:45;;;;;;;0.00;0.00;;;12.80;58.30;;;;;;5001064;28;20026;-88